Time;durP1;ratioP1;P1;durP2;ratioP2;P2;SDS_P1;SDS_P2;PMS_P1;PMS_P2;Temp;Humidity;BMP_temperature;BMP_pressure;BME280_temperature;BME280_humidity;BME280_pressure;Samples;Min_cycle;Max_cycle;Signal;HPM_P1;HPM_P2
2021/06/02 00:01:16;;;;;;;;;11.25;10.00;;;;;23.38;42.75;100730.03;5095195;27;45398;-74
2021/06/02 00:03:42;;;;;;;;;10.75;8.75;;;;;23.61;43.49;100765.81;5099283;27;45740;-74
2021/06/02 00:06:10;;;;;;;;;10.50;10.00;;;;;23.58;43.27;100773.19;5098344;27;45557;-74
2021/06/02 00:08:37;;;;;;;;;10.75;9.00;;;;;23.51;43.64;100764.69;5098617;27;45485;-73
2021/06/02 00:11:06;;;;;;;;;10.75;10.00;;;;;23.50;43.34;100769.16;5099079;27;45880;-78
2021/06/02 00:13:34;;;;;;;;;9.25;9.00;;;;;23.47;43.50;100768.53;5098229;27;45482;-74
2021/06/02 00:16:00;;;;;;;;;8.75;8.75;;;;;23.39;43.53;100754.88;5090593;27;47317;-75
2021/06/02 00:18:26;;;;;;;;;9.50;9.50;;;;;23.37;43.42;100762.13;5098157;27;45376;-73
2021/06/02 00:20:51;;;;;;;;;10.50;8.75;;;;;23.28;43.42;100754.72;5099131;27;45432;-73
2021/06/02 00:23:17;;;;;;;;;9.50;8.75;;;;;23.31;44.08;100765.16;5098897;27;45335;-73
2021/06/02 00:25:42;;;;;;;;;9.00;9.00;;;;;23.26;43.82;100761.97;5098399;27;45404;-73
2021/06/02 00:28:08;;;;;;;;;9.25;9.25;;;;;23.19;43.71;100750.88;5098205;27;45457;-73
2021/06/02 00:30:36;;;;;;;;;9.25;8.00;;;;;23.19;43.77;100756.19;5099062;27;45324;-74
2021/06/02 00:33:02;;;;;;;;;8.50;8.50;;;;;23.20;43.67;100764.09;5098634;27;45514;-73
2021/06/02 00:35:27;;;;;;;;;10.25;9.50;;;;;23.15;43.87;100765.34;5089106;27;46289;-74
2021/06/02 00:37:53;;;;;;;;;9.00;8.50;;;;;23.14;43.85;100771.66;5097918;27;45406;-73
2021/06/02 00:40:37;;;;;;;;;8.00;7.75;;;;;23.15;43.95;100779.53;5094877;27;45276;-73
2021/06/02 00:43:04;;;;;;;;;8.75;8.25;;;;;23.06;43.56;100763.28;5109420;27;45501;-73
2021/06/02 00:45:33;;;;;;;;;10.00;9.50;;;;;23.07;44.18;100780.97;5098243;27;47361;-74
2021/06/02 00:48:01;;;;;;;;;9.00;9.00;;;;;22.92;44.17;100753.56;5096870;27;45650;-73
2021/06/02 00:50:26;;;;;;;;;9.50;9.25;;;;;23.04;43.96;100771.38;5085090;27;45424;-73
2021/06/02 00:52:53;;;;;;;;;8.00;7.25;;;;;23.00;44.13;100767.22;5081982;27;45303;-73
2021/06/02 00:55:20;;;;;;;;;8.00;8.00;;;;;22.92;44.12;100759.72;5098219;27;45462;-73
2021/06/02 00:57:48;;;;;;;;;8.00;7.00;;;;;22.92;44.22;100757.06;5085979;27;45367;-73
2021/06/02 01:00:15;;;;;;;;;10.00;8.25;;;;;22.90;43.94;100753.66;5083447;27;45669;-73
2021/06/02 01:02:47;;;;;;;;;9.00;9.00;;;;;22.94;44.27;100772.09;5091683;27;45378;-74
2021/06/02 01:05:13;;;;;;;;;8.50;8.25;;;;;22.83;44.49;100755.00;5078573;27;45562;-74
2021/06/02 01:07:40;;;;;;;;;8.75;8.75;;;;;22.87;44.23;100763.66;5096791;27;45348;-74
2021/06/02 01:10:07;;;;;;;;;10.50;10.00;;;;;22.80;44.37;100771.13;5098113;27;45823;-73
2021/06/02 01:12:33;;;;;;;;;9.00;8.00;;;;;22.74;44.66;100763.56;5098363;27;45644;-73
2021/06/02 01:15:00;;;;;;;;;9.00;9.00;;;;;22.73;44.67;100764.50;5078592;27;45377;-73
2021/06/02 01:17:30;;;;;;;;;9.25;8.75;;;;;22.67;44.74;100756.06;5080971;27;45523;-75
2021/06/02 01:19:58;;;;;;;;;8.25;8.00;;;;;22.55;44.80;100736.41;5080319;27;45489;-76
2021/06/02 01:22:24;;;;;;;;;10.00;10.00;;;;;22.66;44.80;100759.69;5090690;27;45624;-73
2021/06/02 01:24:49;;;;;;;;;10.50;8.00;;;;;22.61;45.00;100750.16;5096138;27;45588;-73
2021/06/02 01:27:16;;;;;;;;;8.00;7.00;;;;;22.52;45.09;100731.28;5084415;27;45562;-74
2021/06/02 01:29:48;;;;;;;;;10.00;10.00;;;;;22.53;45.16;100739.16;5084055;27;45770;-73
2021/06/02 01:32:41;;;;;;;;;10.00;10.00;;;;;22.56;44.84;100743.44;5088065;27;45423;-74
2021/06/02 01:35:31;;;;;;;;;10.00;9.00;;;;;22.42;45.01;100739.00;5075491;27;48153;-74
2021/06/02 01:38:43;;;;;;;;;9.25;9.00;;;;;22.49;45.12;100752.78;5097165;27;45276;-74
2021/06/02 01:41:20;;;;;;;;;10.00;9.25;;;;;22.46;45.27;100751.16;5079720;27;45597;-73
2021/06/02 01:44:17;;;;;;;;;10.50;9.50;;;;;22.46;45.00;100759.16;5082736;27;45478;-73
2021/06/02 01:47:19;;;;;;;;;9.00;8.75;;;;;22.42;45.52;100760.31;5087842;27;45465;-73
2021/06/02 01:50:16;;;;;;;;;10.75;10.75;;;;;22.40;45.41;100763.97;5096870;27;45624;-73
2021/06/02 01:52:47;;;;;;;;;10.00;8.75;;;;;22.38;45.49;100760.56;5095635;27;45766;-73
2021/06/02 01:55:51;;;;;;;;;10.25;9.75;;;;;22.28;45.52;100747.84;5097241;27;45484;-73
2021/06/02 01:58:51;;;;;;;;;9.25;9.25;;;;;22.31;45.83;100758.31;5091984;27;45416;-73
2021/06/02 02:01:23;;;;;;;;;11.25;11.25;;;;;22.29;45.54;100757.53;5097322;27;45604;-74
2021/06/02 02:04:21;;;;;;;;;13.50;12.50;;;;;22.24;46.16;100748.16;5096725;27;45289;-74
2021/06/02 02:07:05;;;;;;;;;9.75;9.25;;;;;22.16;45.74;100750.41;5091802;27;45647;-74
2021/06/02 02:09:56;;;;;;;;;9.75;9.75;;;;;22.17;46.07;100765.41;5096510;27;46729;-74
2021/06/02 02:12:47;;;;;;;;;10.25;9.25;;;;;22.10;46.23;100759.63;5086070;27;45416;-74
2021/06/02 02:15:50;;;;;;;;;10.75;9.50;;;;;22.13;46.59;100763.91;5088980;27;45824;-74
2021/06/02 02:18:43;;;;;;;;;9.25;9.00;;;;;22.10;46.65;100770.28;5094690;27;45515;-73
2021/06/02 02:21:29;;;;;;;;;10.25;9.75;;;;;22.02;46.73;100757.44;5090298;27;46357;-73
2021/06/02 02:24:12;;;;;;;;;10.50;10.50;;;;;22.04;46.70;100754.69;5094120;27;45443;-73
2021/06/02 02:26:57;;;;;;;;;9.50;9.50;;;;;22.02;46.79;100754.78;5094284;27;45394;-74
2021/06/02 02:29:30;;;;;;;;;11.75;10.75;;;;;22.00;46.45;100761.13;5094044;27;45538;-74
2021/06/02 02:32:00;;;;;;;;;11.75;10.75;;;;;21.97;46.90;100763.97;5081856;27;47307;-74
2021/06/02 02:34:45;;;;;;;;;11.00;10.50;;;;;21.89;46.71;100756.47;5094117;27;45585;-74
2021/06/02 02:37:24;;;;;;;;;11.75;11.00;;;;;21.92;46.58;100771.38;5082999;27;45514;-73
2021/06/02 02:39:59;;;;;;;;;11.00;10.50;;;;;21.90;46.94;100759.97;5094009;27;45549;-74
2021/06/02 02:42:51;;;;;;;;;13.25;10.75;;;;;21.87;46.89;100766.34;5093975;27;47199;-74
2021/06/02 02:45:26;;;;;;;;;13.50;12.00;;;;;21.78;47.03;100755.41;5075621;27;45864;-74
2021/06/02 02:48:06;;;;;;;;;10.00;10.00;;;;;21.63;47.29;100736.78;5061976;28;45392;-74
2021/06/02 02:51:01;;;;;;;;;11.00;11.00;;;;;21.76;47.38;100759.97;5085741;27;45483;-74
2021/06/02 02:54:10;;;;;;;;;11.75;10.50;;;;;21.78;47.40;100766.91;5087467;27;45971;-74
2021/06/02 02:56:41;;;;;;;;;9.75;9.25;;;;;21.76;47.57;100767.94;5046558;28;45535;-75
2021/06/02 02:59:18;;;;;;;;;12.25;11.00;;;;;21.73;47.46;100768.09;5066454;28;45409;-74
2021/06/02 03:02:04;;;;;;;;;11.25;11.00;;;;;21.71;47.58;100765.53;5062261;28;45358;-75
2021/06/02 03:04:44;;;;;;;;;9.75;9.50;;;;;21.66;47.20;100763.16;5072813;28;46372;-75
2021/06/02 03:07:12;;;;;;;;;13.75;12.00;;;;;21.62;47.84;100760.78;5068495;28;45404;-74
2021/06/02 03:09:50;;;;;;;;;12.25;12.00;;;;;21.59;47.63;100755.66;5058404;28;45512;-73
2021/06/02 03:12:30;;;;;;;;;10.00;9.25;;;;;21.59;47.67;100764.50;5053200;28;45491;-73
2021/06/02 03:14:58;;;;;;;;;13.50;10.50;;;;;21.55;48.15;100760.31;5073203;28;46552;-74
2021/06/02 03:17:39;;;;;;;;;11.50;11.00;;;;;21.49;47.50;100757.13;5073292;28;45512;-73
2021/06/02 03:20:10;;;;;;;;;12.50;11.50;;;;;21.50;47.49;100761.50;5056429;28;45500;-74
2021/06/02 03:23:13;;;;;;;;;11.00;10.00;;;;;21.51;48.21;100764.09;5054046;28;45449;-75
2021/06/02 03:26:05;;;;;;;;;11.75;11.75;;;;;21.49;47.83;100776.59;5072811;28;45436;-74
2021/06/02 03:28:56;;;;;;;;;11.75;11.25;;;;;21.49;47.82;100775.72;5073399;28;45439;-73
2021/06/02 03:31:43;;;;;;;;;16.25;15.00;;;;;21.47;47.79;100773.16;5071442;28;45571;-73
2021/06/02 03:34:21;;;;;;;;;12.00;12.00;;;;;21.44;48.00;100770.69;5095557;27;45541;-73
2021/06/02 03:37:21;;;;;;;;;11.00;10.75;;;;;21.40;48.28;100767.38;5094756;27;45366;-72
2021/06/02 03:39:48;;;;;;;;;10.00;10.00;;;;;21.40;48.14;100766.50;5091352;27;45759;-73
2021/06/02 03:42:35;;;;;;;;;11.00;11.00;;;;;21.38;48.31;100763.94;5093625;27;45969;-73
2021/06/02 03:45:28;;;;;;;;;11.25;10.25;;;;;21.35;48.21;100764.13;5077293;27;45670;-74
2021/06/02 03:48:26;;;;;;;;;10.00;9.25;;;;;21.17;48.78;100735.97;5073417;28;46257;-74
2021/06/02 03:51:06;;;;;;;;;11.75;10.50;;;;;21.29;48.43;100764.50;5030834;28;45774;-75
2021/06/02 03:54:01;;;;;;;;;12.00;11.00;;;;;21.21;48.26;100748.09;5028616;28;46607;-73
2021/06/02 03:56:58;;;;;;;;;11.75;11.00;;;;;21.29;48.79;100767.16;5016353;28;45524;-72
2021/06/02 03:59:48;;;;;;;;;11.75;10.75;;;;;21.27;48.90;100766.38;5034316;28;46425;-73
2021/06/02 04:02:20;;;;;;;;;11.75;10.75;;;;;21.25;48.62;100765.59;5021573;28;45448;-73
2021/06/02 04:04:57;;;;;;;;;14.25;12.00;;;;;21.24;48.89;100765.69;5018948;28;45298;-72
2021/06/02 04:07:34;;;;;;;;;13.00;11.00;;;;;21.22;48.69;100765.75;5015690;28;45906;-74
2021/06/02 04:10:06;;;;;;;;;13.00;11.00;;;;;21.21;49.13;100769.34;5024609;28;45677;-74
2021/06/02 04:12:44;;;;;;;;;12.75;11.75;;;;;21.21;49.12;100771.16;5026792;28;45820;-73
2021/06/02 04:15:13;;;;;;;;;11.00;10.50;;;;;21.13;48.84;100770.75;5033830;28;45477;-73
2021/06/02 04:17:46;;;;;;;;;11.25;11.25;;;;;21.04;49.03;100750.88;5021665;28;45468;-72
2021/06/02 04:20:13;;;;;;;;;13.00;13.00;;;;;21.14;48.98;100768.00;5034788;28;45438;-78
2021/06/02 04:22:40;;;;;;;;;12.75;12.00;;;;;21.09;48.77;100762.13;5035523;28;45630;-75
2021/06/02 04:25:06;;;;;;;;;12.75;12.00;;;;;21.08;49.05;100761.25;5034935;28;45523;-74
2021/06/02 04:27:34;;;;;;;;;11.50;11.00;;;;;21.12;49.47;100769.91;5095163;27;45339;-76
2021/06/02 04:30:04;;;;;;;;;11.75;11.25;;;;;21.18;49.55;100779.31;5101136;27;48454;-73
2021/06/02 04:32:48;;;;;;;;;13.50;12.75;;;;;21.18;49.14;100777.50;5096952;27;45459;-73
2021/06/02 04:35:18;;;;;;;;;12.50;12.00;;;;;21.19;49.13;100775.69;5093769;27;45427;-73
2021/06/02 04:37:46;;;;;;;;;12.00;12.00;;;;;21.09;49.16;100768.28;5098034;27;45476;-73
2021/06/02 04:40:12;;;;;;;;;13.50;12.50;;;;;21.17;49.49;100778.44;5097552;27;46334;-73
2021/06/02 04:42:39;;;;;;;;;12.25;10.25;;;;;21.17;49.71;100775.78;5098354;27;45308;-73
2021/06/02 04:45:22;;;;;;;;;14.00;13.25;;;;;21.18;49.22;100772.19;5098129;27;45462;-73
2021/06/02 04:47:49;;;;;;;;;11.75;11.00;;;;;21.12;49.50;100761.94;5079583;27;45492;-73
2021/06/02 04:50:17;;;;;;;;;13.75;12.00;;;;;21.21;49.19;100779.13;5097791;27;45518;-73
2021/06/02 04:53:01;;;;;;;;;12.75;12.00;;;;;21.21;49.27;100773.81;5076507;27;45609;-75
2021/06/02 04:55:48;;;;;;;;;12.25;11.75;;;;;21.23;49.62;100777.22;5096681;27;45506;-74
2021/06/02 04:58:22;;;;;;;;;13.50;12.00;;;;;21.25;49.44;100780.69;5098509;27;45494;-73
2021/06/02 05:01:08;;;;;;;;;11.75;11.50;;;;;21.22;49.28;100770.22;5112988;27;48375;-73
2021/06/02 05:03:51;;;;;;;;;12.50;12.50;;;;;21.28;50.01;100780.53;5097555;27;45309;-73
2021/06/02 05:06:19;;;;;;;;;11.25;11.25;;;;;21.32;49.31;100790.03;5097701;27;45451;-75
2021/06/02 05:09:22;;;;;;;;;11.00;10.75;;;;;21.33;48.99;100787.28;5097720;27;45424;-73
2021/06/02 05:12:30;;;;;;;;;12.50;12.25;;;;;21.33;49.56;100786.44;5091303;27;47547;-73
2021/06/02 05:15:26;;;;;;;;;13.00;12.25;;;;;21.38;49.20;100785.19;5095105;27;45630;-73
2021/06/02 05:18:04;;;;;;;;;11.50;11.50;;;;;21.35;49.37;100781.88;5110192;27;45349;-69
2021/06/02 05:23:31;;;;;;;;;15.00;13.75;;;;;21.46;49.48;100789.19;5089729;27;45335;-74
2021/06/02 05:26:32;;;;;;;;;13.25;11.75;;;;;21.31;49.11;100764.41;5092461;27;45489;-72
2021/06/02 05:29:32;;;;;;;;;13.75;13.00;;;;;21.50;48.94;100799.59;5095610;27;45471;-73
2021/06/02 05:32:12;;;;;;;;;16.25;13.50;;;;;21.51;49.52;100809.25;5088779;27;45355;-74
2021/06/02 05:35:13;;;;;;;;;15.00;14.00;;;;;21.45;49.09;100796.31;5096334;27;47448;-71
2021/06/02 05:38:26;;;;;;;;;15.50;14.25;;;;;21.52;49.09;100812.78;5086930;27;45436;-72
2021/06/02 05:41:17;;;;;;;;;12.75;12.50;;;;;21.54;49.55;100808.22;5064804;28;45554;-76
2021/06/02 05:44:07;;;;;;;;;14.50;14.00;;;;;21.60;49.48;100815.81;5073785;28;45469;-71
2021/06/02 05:47:20;;;;;;;;;16.00;13.25;;;;;21.65;49.56;100813.75;5053656;28;48165;-70
2021/06/02 05:49:55;;;;;;;;;15.00;13.50;;;;;21.73;48.89;100821.25;5068594;28;45847;-77
2021/06/02 05:52:43;;;;;;;;;12.00;11.50;;;;;21.74;49.73;100812.38;5073399;28;45337;-75
2021/06/02 05:55:23;;;;;;;;;13.50;13.25;;;;;21.60;49.49;100792.78;5033420;28;45473;-87
2021/06/02 05:57:51;;;;;;;;;14.25;11.75;;;;;21.78;49.79;100814.75;5024928;28;47321;-87
2021/06/02 06:00:32;;;;;;;;;16.00;15.00;;;;;21.79;50.42;100812.94;5016886;28;45580;-86
2021/06/02 06:03:18;;;;;;;;;14.00;14.00;;;;;21.85;50.04;100823.19;5025401;28;45412;-76
2021/06/02 06:06:02;;;;;;;;;16.00;13.50;;;;;21.86;49.95;100827.56;5033050;28;45464;-75
2021/06/02 06:08:51;;;;;;;;;13.75;13.25;;;;;21.84;50.54;100829.47;5016341;28;46371;-76
2021/06/02 06:11:51;;;;;;;;;15.00;13.25;;;;;21.84;50.80;100829.47;5032667;28;45739;-70
2021/06/02 06:14:46;;;;;;;;;12.75;12.00;;;;;21.84;50.34;100830.31;5033163;28;45496;-75
2021/06/02 06:17:30;;;;;;;;;14.75;13.00;;;;;21.82;51.12;100820.72;5041894;28;45475;-76
2021/06/02 06:20:13;;;;;;;;;14.75;13.75;;;;;21.90;50.56;100818.44;5042632;28;45649;-79
2021/06/02 06:22:51;;;;;;;;;13.25;12.75;;;;;21.93;51.31;100819.13;5052074;28;45856;-72
2021/06/02 06:25:24;;;;;;;;;14.00;14.00;;;;;21.90;51.46;100816.66;5048988;28;45637;-78
2021/06/02 06:27:57;;;;;;;;;14.75;12.00;;;;;21.96;52.05;100828.75;5046472;28;45573;-77
2021/06/02 06:30:41;;;;;;;;;14.75;14.25;;;;;22.04;51.32;100831.81;5030461;28;47687;-77
2021/06/02 06:33:14;;;;;;;;;14.00;13.50;;;;;22.02;51.12;100815.94;5084483;27;45475;-77
2021/06/02 06:35:42;;;;;;;;;16.00;15.50;;;;;22.10;51.01;100826.13;5095585;27;45911;-83
2021/06/02 06:38:55;;;;;;;;;18.00;16.50;;;;;22.15;51.48;100832.00;5080209;27;45376;-77
2021/06/02 06:41:24;;;;;;;;;17.75;15.50;;;;;22.18;51.20;100823.88;5034295;28;47483;-75
2021/06/02 06:43:53;;;;;;;;;18.00;16.25;;;;;22.26;52.63;100831.38;5034162;28;45485;-77
2021/06/02 06:46:22;;;;;;;;;17.25;15.50;;;;;22.23;51.58;100826.25;5034239;28;45377;-83
2021/06/02 06:48:49;;;;;;;;;18.75;16.75;;;;;22.28;51.85;100834.78;5034202;28;45290;-73
2021/06/02 06:51:18;;;;;;;;;16.25;15.50;;;;;22.16;52.87;100812.44;5033808;28;46527;-78
2021/06/02 06:53:45;;;;;;;;;16.25;15.75;;;;;22.28;52.03;100829.47;5018019;28;45629;-78
2021/06/02 06:56:12;;;;;;;;;17.50;16.75;;;;;22.37;51.72;100833.34;5038363;28;45506;-80
2021/06/02 06:58:38;;;;;;;;;16.25;16.00;;;;;22.43;51.88;100838.31;5038126;28;45542;-82
2021/06/02 07:01:04;;;;;;;;;16.50;15.50;;;;;22.45;52.01;100839.94;5034295;28;45502;-81
2021/06/02 07:03:30;;;;;;;;;13.75;13.00;;;;;22.47;52.17;100822.06;5034100;28;45436;-81
2021/06/02 07:06:02;;;;;;;;;15.75;15.50;;;;;22.50;51.96;100811.22;5034080;28;45462;-80
2021/06/02 07:08:29;;;;;;;;;16.25;15.50;;;;;22.60;52.18;100819.47;5034580;28;45511;-80
2021/06/02 07:10:58;;;;;;;;;18.50;17.00;;;;;22.57;51.98;100804.53;5034265;28;45341;-81
2021/06/02 07:13:24;;;;;;;;;18.00;16.75;;;;;22.77;52.17;100832.56;5033763;28;45595;-72
2021/06/02 07:15:50;;;;;;;;;18.25;17.25;;;;;22.75;52.36;100830.97;5067973;28;45433;-74
2021/06/02 07:18:19;;;;;;;;;18.50;17.75;;;;;22.79;52.93;100841.31;5076186;27;45312;-72
2021/06/02 07:20:46;;;;;;;;;17.25;17.00;;;;;22.80;52.29;100826.19;5075957;28;45655;-71
2021/06/02 07:23:13;;;;;;;;;19.50;18.00;;;;;22.95;52.00;100849.22;5076940;27;45528;-73
2021/06/02 07:25:38;;;;;;;;;20.00;19.25;;;;;23.02;52.43;100849.66;5078316;28;45356;-70
2021/06/02 07:28:09;;;;;;;;;19.00;18.00;;;;;23.02;52.03;100845.19;5080209;27;45299;-71
2021/06/02 07:30:35;;;;;;;;;20.75;17.25;;;;;22.92;51.95;100838.75;5079747;27;48692;-73
2021/06/02 07:33:01;;;;;;;;;16.25;16.25;;;;;23.03;52.55;100843.38;5080035;28;45387;-70
2021/06/02 07:38:48;;;;;;;;;20.00;18.50;;;;;23.14;52.27;100846.22;5079643;28;45537;-71
2021/06/02 07:41:14;;;;;;;;;15.75;15.00;;;;;23.17;52.62;100843.34;5079960;27;46605;-71
2021/06/02 07:43:39;;;;;;;;;17.25;16.50;;;;;23.21;52.35;100836.88;5079412;28;45478;-70
2021/06/02 07:46:05;;;;;;;;;20.25;18.00;;;;;23.23;51.90;100833.16;5080007;28;45342;-71
2021/06/02 07:48:30;;;;;;;;;16.75;15.50;;;;;23.38;52.86;100846.44;5079814;28;45386;-70
2021/06/02 07:50:56;;;;;;;;;15.00;14.75;;;;;23.41;52.46;100847.06;5079302;27;47234;-70
2021/06/02 07:53:22;;;;;;;;;18.50;17.25;;;;;23.47;52.67;100848.47;5079219;27;45359;-69
2021/06/02 07:55:47;;;;;;;;;18.50;16.50;;;;;23.55;51.75;100848.00;5079765;28;45321;-70
2021/06/02 07:58:13;;;;;;;;;20.75;18.25;;;;;23.58;52.32;100847.81;5078941;27;45322;-73
2021/06/02 08:00:38;;;;;;;;;20.25;17.25;;;;;23.63;52.02;100851.00;5079163;27;45289;-69
2021/06/02 08:03:04;;;;;;;;;17.25;17.00;;;;;23.65;52.57;100852.63;5079225;28;45266;-70
2021/06/02 08:08:51;;;;;;;;;21.25;19.75;;;;;23.79;52.07;100859.72;5079526;28;45264;-68
2021/06/02 08:11:16;;;;;;;;;19.00;18.25;;;;;23.86;52.16;100862.81;5078422;27;47497;-68
2021/06/02 08:13:42;;;;;;;;;18.00;17.25;;;;;23.89;52.52;100867.94;5078374;28;45361;-70
2021/06/02 08:16:07;;;;;;;;;18.50;17.25;;;;;23.88;52.86;100863.56;5078621;28;45487;-69
2021/06/02 08:18:33;;;;;;;;;19.75;18.50;;;;;23.99;52.24;100863.66;5078996;28;45511;-69
2021/06/02 08:20:59;;;;;;;;;19.50;17.75;;;;;24.05;52.51;100864.13;5079284;27;45477;-67
2021/06/02 08:23:24;;;;;;;;;18.75;16.50;;;;;23.91;52.54;100836.66;5078812;27;45345;-69
2021/06/02 08:25:50;;;;;;;;;17.00;16.00;;;;;24.06;52.47;100865.81;5078754;27;45267;-70
2021/06/02 08:28:16;;;;;;;;;17.75;17.50;;;;;24.22;52.42;100867.44;5079063;27;45301;-71
2021/06/02 08:30:42;;;;;;;;;18.75;18.25;;;;;24.28;52.97;100877.69;5078716;27;47223;-70
2021/06/02 08:33:08;;;;;;;;;17.00;15.00;;;;;24.37;53.02;100869.06;5078608;27;45276;-68
2021/06/02 08:38:55;;;;;;;;;15.00;15.00;;;;;24.81;51.90;100873.94;5078590;28;45326;-72
2021/06/02 08:41:21;;;;;;;;;16.75;16.50;;;;;24.92;51.94;100876.69;5078477;27;46621;-70
2021/06/02 08:43:48;;;;;;;;;18.00;16.75;;;;;25.08;51.63;100884.47;5078373;27;45371;-68
2021/06/02 08:46:18;;;;;;;;;17.75;16.75;;;;;25.23;51.25;100890.53;5078564;27;45428;-68
2021/06/02 08:48:47;;;;;;;;;17.00;14.00;;;;;25.36;51.17;100880.66;5078343;27;45561;-69
2021/06/02 08:51:12;;;;;;;;;13.25;12.25;;;;;25.42;50.46;100861.47;5078126;27;47150;-70
2021/06/02 08:53:38;;;;;;;;;17.50;16.50;;;;;25.49;50.38;100872.56;5078366;27;45363;-74
2021/06/02 08:56:04;;;;;;;;;16.00;16.00;;;;;25.68;50.30;100882.78;5077776;27;45472;-71
2021/06/02 08:58:30;;;;;;;;;18.25;18.25;;;;;25.73;50.38;100870.75;5078409;27;45556;-73
2021/06/02 09:00:56;;;;;;;;;14.75;14.75;;;;;25.91;50.02;100881.88;5078051;28;45584;-74
2021/06/02 09:03:22;;;;;;;;;18.25;16.00;;;;;25.98;49.63;100882.25;5077521;27;45584;-68
2021/06/02 09:09:11;;;;;;;;;14.00;12.25;;;;;26.01;49.53;100864.16;5078224;28;45479;-69
2021/06/02 09:11:48;;;;;;;;;16.00;15.00;;;;;26.13;48.88;100859.69;5077457;27;46334;-69
2021/06/02 09:14:23;;;;;;;;;16.75;16.25;;;;;26.40;49.44;100880.81;5077829;27;45347;-68
2021/06/02 09:16:57;;;;;;;;;12.75;12.75;;;;;26.44;49.52;100883.13;5077692;27;45348;-69
2021/06/02 09:19:45;;;;;;;;;16.50;16.25;;;;;26.58;49.40;100875.84;5077608;27;45308;-68
2021/06/02 09:22:15;;;;;;;;;14.75;13.00;;;;;26.77;48.61;100878.75;5077428;27;47512;-69
2021/06/02 09:24:52;;;;;;;;;14.50;13.75;;;;;27.01;48.30;100871.47;5077818;27;45327;-77
2021/06/02 09:27:39;;;;;;;;;16.00;16.00;;;;;27.08;48.38;100858.41;5077965;28;45343;-78
2021/06/02 09:30:06;;;;;;;;;13.75;13.00;;;;;27.33;47.33;100874.19;5078493;28;45382;-74
2021/06/02 09:32:43;;;;;;;;;13.75;13.50;;;;;27.53;46.77;100877.88;5077941;27;46169;-73
2021/06/02 09:35:09;;;;;;;;;15.25;15.00;;;;;27.64;46.05;100869.00;5078277;27;45579;-77
2021/06/02 09:37:48;;;;;;;;;15.25;14.25;;;;;27.86;46.01;100884.16;5077951;27;45338;-76
2021/06/02 09:40:25;;;;;;;;;16.50;15.00;;;;;27.89;45.64;100873.16;5078133;28;45343;-72
2021/06/02 09:42:51;;;;;;;;;15.25;13.25;;;;;28.08;45.69;100881.34;5077505;27;47399;-75
2021/06/02 09:45:17;;;;;;;;;13.25;13.00;;;;;28.30;45.75;100883.91;5077510;27;45271;-73
2021/06/02 09:47:55;;;;;;;;;17.75;15.75;;;;;28.55;45.21;100877.25;5076896;28;45339;-73
2021/06/02 09:50:32;;;;;;;;;14.75;14.00;;;;;28.77;44.80;100881.59;5077874;27;45419;-75
2021/06/02 09:53:01;;;;;;;;;14.75;14.75;;;;;28.84;43.33;100877.38;5075995;28;48502;-74
2021/06/02 09:55:34;;;;;;;;;13.25;12.50;;;;;28.88;43.73;100884.19;5077600;27;45291;-69
2021/06/02 09:58:05;;;;;;;;;13.50;12.75;;;;;28.71;43.68;100890.16;5077494;28;45376;-70
2021/06/02 10:00:32;;;;;;;;;14.50;13.75;;;;;28.43;43.93;100882.84;5077866;27;45350;-70
2021/06/02 10:03:02;;;;;;;;;13.00;12.00;;;;;28.37;44.85;100884.22;5077119;27;46935;-67
2021/06/02 10:05:36;;;;;;;;;16.25;13.75;;;;;28.40;45.12;100873.22;5077111;27;45292;-69
2021/06/02 10:08:03;;;;;;;;;13.75;13.50;;;;;28.60;44.45;100884.91;5077836;28;45295;-67
2021/06/02 10:10:28;;;;;;;;;15.50;15.25;;;;;28.85;44.49;100883.59;5077686;27;45299;-67
2021/06/02 10:13:03;;;;;;;;;15.00;13.00;;;;;29.06;44.34;100878.16;5076891;27;46420;-68
2021/06/02 10:15:43;;;;;;;;;17.25;16.25;;;;;29.19;43.81;100887.66;5076709;27;45432;-68
2021/06/02 10:18:29;;;;;;;;;17.25;15.25;;;;;29.24;42.96;100885.44;5076881;27;45342;-67
2021/06/02 10:21:09;;;;;;;;;11.25;10.75;;;;;29.53;43.40;100884.66;5077265;27;45333;-72
2021/06/02 10:23:39;;;;;;;;;13.25;12.75;;;;;30.18;42.18;100892.00;5076979;28;46672;-68
2021/06/02 10:26:06;;;;;;;;;12.75;11.00;;;;;30.97;39.45;100893.44;5076501;27;45577;-68
2021/06/02 10:28:32;;;;;;;;;13.00;12.00;;;;;31.64;36.92;100886.78;5076964;27;45244;-68
2021/06/02 10:30:59;;;;;;;;;13.00;12.75;;;;;31.44;38.48;100882.53;5077229;27;45247;-68
2021/06/02 10:33:25;;;;;;;;;14.50;13.00;;;;;31.03;37.93;100891.03;5076682;27;46231;-68
2021/06/02 10:35:51;;;;;;;;;11.00;11.00;;;;;30.58;39.23;100887.38;5076832;28;45552;-79
2021/06/02 10:38:17;;;;;;;;;14.00;13.50;;;;;30.12;39.74;100884.50;5077392;27;45469;-80
2021/06/02 10:40:44;;;;;;;;;13.75;13.50;;;;;29.97;40.80;100901.22;5077497;27;45458;-77
2021/06/02 10:43:15;;;;;;;;;16.75;15.25;;;;;29.96;40.75;100897.69;5076799;27;46396;-74
2021/06/02 10:45:52;;;;;;;;;12.50;11.75;;;;;30.29;41.33;100909.00;5076819;27;45369;-80
2021/06/02 10:48:39;;;;;;;;;14.75;13.75;;;;;30.29;41.48;100884.75;5076703;27;45337;-83
2021/06/02 10:51:04;;;;;;;;;14.75;14.00;;;;;30.71;41.07;100886.06;5077018;27;45285;-70
2021/06/02 10:53:30;;;;;;;;;15.50;14.00;;;;;31.28;40.62;100907.53;5074858;28;46268;-72
2021/06/02 10:55:58;;;;;;;;;14.25;14.25;;;;;31.34;39.21;100891.56;5076622;28;45233;-72
2021/06/02 10:58:33;;;;;;;;;17.25;15.25;;;;;31.30;38.83;100910.91;5078079;27;45425;-71
2021/06/02 11:01:04;;;;;;;;;15.25;14.25;;;;;31.22;39.19;100917.03;5080387;28;45376;-71
2021/06/02 11:03:31;;;;;;;;;18.25;16.75;;;;;31.33;39.99;100911.44;5078571;28;47367;-71
2021/06/02 11:05:57;;;;;;;;;15.50;14.50;;;;;31.72;39.37;100911.22;5079885;28;45496;-74
2021/06/02 11:08:48;;;;;;;;;17.00;17.00;;;;;32.26;38.73;100903.91;5080097;28;45262;-77
2021/06/02 11:11:35;;;;;;;;;16.50;15.50;;;;;32.80;36.47;100913.53;5080274;27;45444;-72
2021/06/02 11:14:20;;;;;;;;;11.00;10.50;;;;;32.97;37.24;100913.59;5079925;27;46765;-70
2021/06/02 11:16:59;;;;;;;;;9.25;9.25;;;;;32.97;36.02;100917.16;5079579;27;45629;-74
2021/06/02 11:23:04;;;;;;;;;10.75;10.00;;;;;32.47;35.64;100917.03;5080215;28;45295;-75
2021/06/02 11:25:30;;;;;;;;;11.00;10.00;;;;;32.33;36.41;100921.16;5079445;27;45927;-72
2021/06/02 11:27:57;;;;;;;;;12.00;11.50;;;;;31.95;37.09;100903.47;5079674;27;45291;-71
2021/06/02 11:30:24;;;;;;;;;8.75;8.75;;;;;31.74;38.06;100913.75;5079831;27;45296;-72
2021/06/02 11:32:51;;;;;;;;;13.00;12.00;;;;;31.51;37.98;100918.72;5079675;27;45429;-77
2021/06/02 11:38:40;;;;;;;;;12.75;11.00;;;;;30.83;39.06;100934.41;5079446;28;45376;-69
2021/06/02 11:41:05;;;;;;;;;12.00;11.00;;;;;30.25;39.36;100923.75;5079450;27;45378;-66
2021/06/02 11:43:31;;;;;;;;;11.00;11.00;;;;;29.88;40.21;100927.16;5079819;27;45343;-69
2021/06/02 11:45:59;;;;;;;;;13.00;12.75;;;;;29.54;41.01;100922.19;5079285;27;46512;-68
2021/06/02 11:48:27;;;;;;;;;9.75;9.75;;;;;29.21;42.27;100920.69;5079417;27;45266;-71
2021/06/02 11:54:14;;;;;;;;;12.75;12.00;;;;;29.35;42.41;100937.41;5079584;28;45237;-66
2021/06/02 11:56:40;;;;;;;;;12.00;12.00;;;;;29.61;41.88;100946.69;5078803;27;46728;-67
2021/06/02 11:59:05;;;;;;;;;13.00;12.50;;;;;29.74;41.21;100933.81;5079226;27;45253;-71
2021/06/02 12:01:30;;;;;;;;;10.75;9.00;;;;;29.91;40.50;100926.88;5079349;28;45252;-79
2021/06/02 12:03:56;;;;;;;;;10.50;10.00;;;;;30.22;39.82;100940.19;5079368;27;45423;-69
2021/06/02 12:09:48;;;;;;;;;12.25;12.00;;;;;30.59;39.09;100941.13;5077923;28;45283;-72
2021/06/02 12:12:13;;;;;;;;;11.00;10.00;;;;;30.62;38.32;100924.69;5079191;27;45449;-68
2021/06/02 12:14:39;;;;;;;;;11.75;11.75;;;;;30.82;38.91;100921.94;5079398;27;45384;-67
2021/06/02 12:17:05;;;;;;;;;12.75;12.75;;;;;30.87;38.79;100925.88;5078596;28;46292;-76